• Join FlightAware (Why Join?)
  • Login
  • US Flag 
02:23PM EDT


 

Airport Tracker/Info


-or-


 

Live Flight TrackerFlight Track Log ✈ AAL2460 ✈ 26-Jun-2013 ✈ KLAX - KDFW

Flight Track Log - Related Links

Times and Time Zones

All times are in EDT time to prevent confusion due to time zone crossing. See the AAL2460 flight status page for this flight to view local times or setup timezone preferences in your user account.

Time Position Orientation Groundspeed Altitude Reporting Facility
EDT Latitude Longitude Course Direction KTS MPH feet Rate Location/Type
08:11PM 33.9281 -118.4678 86° East 185 213 3,000  Level Los Angeles Center
08:12PM 33.8853 -118.5294 230° Southwest 245 282 5,100 2,340 Climbing Los Angeles Center
08:13PM 33.7757 -118.6343 132° Southeast  Level FlightAware Approximate
08:14PM 33.6938 -118.5297 134° Southeast  Level FlightAware Approximate
08:14PM 33.8183 -118.5522 196° South 277 319 7,900  Level Los Angeles Center
08:15PM 33.6582 -118.3955 116° Southeast  Level FlightAware Approximate
08:15PM 33.7414 -118.5328 168° South 289 333 10,500  Level Los Angeles Center
08:16PM 33.6334 -118.2587 90° East  Level FlightAware Approximate
08:16PM 33.6739 -118.4331 129° Southeast 331 381 13,000  Level Los Angeles Center
08:17PM 33.6406 -118.1146 86° East  Level Estimated
08:17PM 33.6653 -118.3203 95° East 348 400 15,600  Level Los Angeles Center
08:18PM 33.6653 -118.2008 90° East 365 420 17,100 1,380 Climbing Los Angeles Center
08:19PM 33.6639 -118.0633 91° East 400 460 18,500 1,680 Climbing Los Angeles Center
08:20PM 33.6619 -117.8886 91° East 433 498 20,600 1,680 Climbing Los Angeles Center
08:21PM 33.6592 -117.7386 91° East 448 516 22,100 1,680 Climbing Los Angeles Center
08:22PM 33.6581 -117.5858 90° East 459 528 24,100 1,740 Climbing Los Angeles Center
08:23PM 33.6567 -117.4286 91° East 468 539 25,700 1,500 Climbing Los Angeles Center
08:24PM 33.6531 -117.2700 92° East 475 547 27,200 1,800 Climbing Los Angeles Center
08:25PM 33.6500 -117.0769 91° East 482 555 29,500 2,040 Climbing Los Angeles Center
08:26PM 33.6586 -116.9206 86° East 473 544 31,500 1,920 Climbing Los Angeles Center
08:27PM 33.6917 -116.7628 76° East 470 541 33,500 1,620 Climbing Los Angeles Center
08:28PM 33.7225 -116.6108 76° East 468 539 34,900 660 Climbing Los Angeles Center
08:29PM 33.7531 -116.4597 76° East 464 534 34,900  Level Los Angeles Center
08:30PM 33.7828 -116.3106 76° East 460 529 34,900  Level Los Angeles Center
08:31PM 33.8133 -116.1578 76° East 466 536 34,900  Level Los Angeles Center
08:32PM 33.8381 -116.0372 76° East 468 539 34,900  Level Los Angeles Center
08:33PM 33.8778 -115.8314 77° East 454 522 34,900  Level Los Angeles Center
08:34PM 33.9064 -115.6814 77° East 459 528 34,900  Level Los Angeles Center
08:35PM 33.9331 -115.5328 78° East 455 524 34,900  Level Los Angeles Center
08:36PM 33.9625 -115.3831 77° East 458 527 34,900  Level Los Angeles Center
08:37PM 33.9908 -115.2342 77° East 456 525 34,900  Level Los Angeles Center
08:38PM 34.0197 -115.0850 77° East 457 526 34,900  Level Los Angeles Center
08:39PM 34.0544 -114.9064 77° East 458 527 34,900  Level Los Angeles Center
08:40PM 34.0831 -114.7581 77° East 455 524 34,900  Level Los Angeles Center
08:41PM 34.1067 -114.6083 79° East 455 524 34,900  Level Los Angeles Center
08:43PM 34.1239 -114.4569 82° East 455 524 34,900  Level Los Angeles Center
08:44PM 34.1361 -114.2714 85° East 459 528 34,900  Level Los Angeles Center
08:45PM 34.1492 -114.1189 84° East 458 527 34,900  Level Los Angeles Center
08:46PM 34.1619 -113.9350 85° East 459 528 34,900  Level Los Angeles Center
08:47PM 34.1733 -113.7819 85° East 458 527 35,000  Climbing Los Angeles Center
08:48PM 34.1814 -113.6594 85° East 459 528 34,900  Descending Los Angeles Center
08:49PM 34.1928 -113.4872 85° East 467 537 35,000  Climbing Los Angeles Center
08:50PM 34.2086 -113.2589 85° East 457 526 35,000  Level Albuquerque Center
08:51PM 34.2194 -113.1050 85° East 458 527 35,000  Level Albuquerque Center
08:52PM 34.2306 -112.9522 85° East 458 527 35,000  Level Albuquerque Center
08:53PM 34.2400 -112.8000 86° East 457 526 35,000  Level Albuquerque Center
08:54PM 34.2497 -112.6458 86° East 458 527 35,000  Level Albuquerque Center
08:55PM 34.2625 -112.4625 85° East 458 527 35,000  Level Albuquerque Center
08:56PM 34.2717 -112.3083 86° East 458 527 35,000  Level Albuquerque Center
08:57PM 34.2808 -112.1539 86° East 458 527 35,000  Level Albuquerque Center
08:58PM 34.2900 -111.9986 86° East 459 528 35,000  Level Albuquerque Center
09:00PM 34.2989 -111.8422 86° East 461 531 35,000  Level Albuquerque Center
09:01PM 34.3075 -111.6867 86° East 460 529 35,000  Level Albuquerque Center
09:02PM 34.3167 -111.5303 86° East 462 532 35,000  Level Albuquerque Center
09:03PM 34.3250 -111.3750 86° East 461 531 35,000  Level Albuquerque Center
09:04PM 34.3331 -111.2192 86° East 462 532 35,000  Level Albuquerque Center
09:05PM 34.3414 -111.0636 86° East 464 534 35,000  Level Albuquerque Center
09:06PM 34.3500 -110.9069 86° East 465 535 35,000  Level Albuquerque Center
09:07PM 34.3594 -110.7194 86° East 466 536 35,000  Level Albuquerque Center
09:08PM 34.3672 -110.5628 87° East 467 537 35,000  Level Albuquerque Center
09:09PM 34.3744 -110.4069 87° East 465 535 35,000  Level Albuquerque Center
09:10PM 34.3803 -110.2519 87° East 469 540 35,000  Level Albuquerque Center
09:11PM 34.3897 -110.0761 86° East 469 540 35,000  Level Albuquerque Center
09:12PM 34.3958 -109.9244 87° East 471 542 35,000  Level Albuquerque Center
09:13PM 34.4050 -109.7492 86° East 469 540 35,000  Level Albuquerque Center
09:14PM 34.4100 -109.5958 88° East 474 545 35,000  Level Albuquerque Center
09:15PM 34.4167 -109.4464 87° East 470 541 35,000  Level Albuquerque Center
09:16PM 34.4225 -109.2689 88° East 471 542 35,000  Level Albuquerque Center
09:17PM 34.4281 -109.1181 87° East 471 542 35,000  Level Albuquerque Center
09:18PM 34.4267 -108.9428 91° East 468 539 35,000  Level Albuquerque Center
09:19PM 34.4253 -108.7931 91° East 467 537 35,000  Level Albuquerque Center
09:20PM 34.4239 -108.6428 91° East 466 536 35,000  Level Albuquerque Center
09:21PM 34.4219 -108.4672 91° East 467 537 35,000  Level Albuquerque Center
09:22PM 34.4206 -108.3039 91° East 467 537 35,000  Level Albuquerque Center
09:23PM 34.4189 -108.1464 91° East 469 540 35,000  Level Albuquerque Center
09:24PM 34.4172 -107.9881 91° East 471 542 35,000  Level Albuquerque Center
09:25PM 34.4169 -107.8308 90° East 471 542 35,000  Level Albuquerque Center
09:26PM 34.4156 -107.6728 91° East 470 541 35,000  Level Albuquerque Center
09:27PM 34.4122 -107.5158 91° East 470 541 35,000  Level Albuquerque Center
09:28PM 34.4097 -107.3583 91° East 470 541 35,000  Level Albuquerque Center
09:29PM 34.4061 -107.1997 92° East 472 543 35,000  Level Albuquerque Center
09:30PM 34.4028 -107.0078 91° East 478 550 35,000  Level Albuquerque Center
09:31PM 34.3989 -106.8497 92° East 476 548 35,000  Level Albuquerque Center
09:32PM 34.3961 -106.6886 91° East 480 552 35,000  Level Albuquerque Center
09:33PM 34.3917 -106.5300 92° East 477 549 35,000  Level Albuquerque Center
09:34PM 34.3881 -106.3694 92° East 478 550 35,000  Level Albuquerque Center
09:35PM 34.3900 -106.2025 89° East 477 549 35,000  Level Albuquerque Center
09:36PM 34.3986 -106.0431 86° East 472 543 35,000  Level Albuquerque Center
09:37PM 34.4056 -105.8550 87° East 476 548 35,000  Level Albuquerque Center
09:38PM 34.4119 -105.6933 87° East 478 550 35,000  Level Albuquerque Center
09:39PM 34.4192 -105.5331 87° East 475 547 35,000  Level Albuquerque Center
09:40PM 34.4253 -105.3711 87° East 477 549 35,000  Level Albuquerque Center
09:42PM 34.4314 -105.2103 87° East 477 549 35,000  Level Albuquerque Center
09:43PM 34.4364 -105.0492 88° East 476 548 35,000  Level Albuquerque Center
09:44PM 34.4431 -104.8892 87° East 474 545 35,000  Level Albuquerque Center
09:45PM 34.4481 -104.7306 88° East 470 541 35,000  Level Albuquerque Center
09:46PM 34.4531 -104.5689 88° East 476 548 35,000  Level Albuquerque Center
09:47PM 34.4586 -104.4081 88° East 477 549 35,000  Level Albuquerque Center
09:48PM 34.4628 -104.2478 88° East 475 547 35,000  Level Albuquerque Center
09:49PM 34.4569 -104.0617 92° East 474 545 35,000  Level Albuquerque Center
09:50PM 34.4511 -103.9006 92° East 476 548 35,000  Level Albuquerque Center
09:51PM 34.4447 -103.7406 93° East 475 547 35,000  Level Albuquerque Center
09:52PM 34.4381 -103.5792 93° East 476 548 35,000  Level Albuquerque Center
09:53PM 34.4306 -103.4211 93° East 472 543 35,000  Level Albuquerque Center
09:54PM 34.4225 -103.2639 94° East 468 539 35,000  Level Albuquerque Center
09:55PM 34.4161 -103.1053 93° East 469 540 35,000  Level Albuquerque Center
09:56PM 34.4069 -102.9342 94° East 470 541 35,000  Level Albuquerque Center
09:57PM 34.3983 -102.7778 94° East 469 540 35,000  Level Albuquerque Center
09:58PM 34.3911 -102.6206 93° East 469 540 35,000  Level Albuquerque Center
09:59PM 34.3839 -102.4686 93° East 462 532 35,000  Level Albuquerque Center
10:00PM 34.3758 -102.3133 94° East 462 532 35,000  Level Albuquerque Center
10:01PM 34.3681 -102.1581 93° East 464 534 35,000  Level Albuquerque Center
10:02PM 34.3600 -102.0031 94° East 465 535 35,000  Level Albuquerque Center
10:03PM 34.3486 -101.8172 94° East 464 534 35,000  Level Albuquerque Center
10:04PM 34.3403 -101.6628 94° East 464 534 35,000  Level Albuquerque Center
10:05PM 34.3314 -101.5069 94° East 466 536 35,000  Level Albuquerque Center
10:06PM 34.3211 -101.3522 95° East 465 535 35,000  Level Albuquerque Center
10:07PM 34.3119 -101.1989 94° East 463 533 35,000  Level Albuquerque Center
10:08PM 34.2967 -101.0158 96° East 463 533 35,000  Level Fort Worth Center
10:09PM 34.2803 -100.8619 97° East 463 533 35,000  Level Fort Worth Center
10:10PM 34.2614 -100.7053 98° East 469 540 35,000  Level Fort Worth Center
10:11PM 34.2444 -100.5514 98° East 469 540 35,000  Level Fort Worth Center
10:12PM 34.2214 -100.3897 100° East 460 529 35,000 -300 Level Fort Worth Center
10:13PM 34.2000 -100.2308 99° East 465 535 34,400 -1,020 Descending Fort Worth Center
10:14PM 34.1614 -100.0817 107° East 465 535 33,000 -720 Descending Fort Worth Center
10:15PM 34.1228 -99.9322 107° East 470 541 33,000  Level Fort Worth Center
10:16PM 34.0819 -99.7781 108° East 470 541 33,000  Level Fort Worth Center
10:17PM 34.0389 -99.6242 109° East 475 547 33,000  Level Fort Worth Center
10:18PM 33.9978 -99.4728 108° East 475 547 33,000  Level Fort Worth Center
10:19PM 33.9603 -99.3367 108° East 475 547 33,000 -420 Level Fort Worth Center
10:20PM 33.9208 -99.1856 107° East 470 541 32,200 -1,500 Descending Fort Worth Center
10:21PM 33.8789 -99.0347 108° East 470 541 30,100 -1,980 Descending Fort Worth Center
10:22PM 33.8350 -98.8839 109° East 465 535 28,300 -1,680 Descending Fort Worth Center
10:23PM 33.7908 -98.7206 108° East 470 541 26,800 -1,380 Descending Fort Worth Center
10:24PM 33.7506 -98.5725 108° East 470 541 25,600 -1,200 Descending Fort Worth Center
10:25PM 33.7100 -98.4272 109° East 464 534 24,400 -1,560 Descending Fort Worth Center
10:26PM 33.6714 -98.2969 110° East 464 534 22,500 -2,160 Descending Fort Worth Center
10:27PM 33.6328 -98.1619 109° East 448 516 20,100 -2,640 Descending Fort Worth Center
10:28PM 33.5917 -98.0144 108° East 425 489 17,300 -2,460 Descending Fort Worth Center
10:29PM 33.5400 -97.9044 119° Southeast 418 481 15,200 -2,520 Descending Fort Worth Center
10:30PM 33.4717 -97.7869 125° Southeast 408 470 12,300 -2,100 Descending Fort Worth Center
10:31PM 33.4156 -97.6972 127° Southeast 383 441 11,000 -1,200 Descending Fort Worth Center
10:32PM 33.3667 -97.6167 126° Southeast 321 369 10,300 -1,080 Descending Dallas / Fort Worth TRACON
10:33PM 33.3167 -97.5667 140° Southeast 305 351 9,300 -1,260 Descending Dallas / Fort Worth TRACON
10:34PM 33.2500 -97.4833 134° Southeast 292 336 7,800 -1,440 Descending Dallas / Fort Worth TRACON
10:35PM 33.2000 -97.4167 132° Southeast 285 328 6,400 -1,320 Descending Dallas / Fort Worth TRACON
10:36PM 33.1500 -97.3500 132° Southeast 276 318 5,200 -1,200 Descending Dallas / Fort Worth TRACON
10:37PM 33.1000 -97.2833 132° Southeast 266 306 4,100 -1,140 Descending Dallas / Fort Worth TRACON
10:38PM 33.0500 -97.2167 132° Southeast 241 277 3,000 -600 Descending Dallas / Fort Worth TRACON
10:39PM 33.0167 -97.1833 140° Southeast 175 201 2,900 -120 Descending Dallas / Fort Worth TRACON